सभी
Ngukurr Airport (Roper River, Northern Territory) RPM मौसम
|
Roper River, Northern Territory (RPM / YNGU)
स्वच्छ आकाश
हल्की हवाएं |
|
34 °C |
RPM Terminal Area Forecast
| Here is the undecoded forecast: 2026/05/03 18:02 YNGU 031802Z 0320/0408 VRB03KT 9999 BKN006 FM040000 15010KT CAVOK FM040300 09010KT CAVOK PROB30 0320/0323 0300 FG BKN001 RMK T 22 26 33 34 Q 1011 1013 1013 1010 |
Recent RPM METAR history
| Date | Time (ACST) | Flight Rules | Wind Dir. | Speed | Type | Height AGL (ft) | Visibility | Temp (°C) | Temp (°F) | Dew Point (°C) | Dew Point (°F) | Rel. Humid. | Pressure | Density Altitude | Remarks |
|---|---|---|---|---|---|---|---|---|---|---|---|---|---|---|---|
| 04-मई | 15:30 | n/a | 80° | 8 kt | Missing | 34° | 93° | 20° | 68° | 44% | 1010 mb | 2,420 ft | |||
| 04-मई | 14:30 | n/a | 70° | 9 kt | Missing | 34° | 93° | 20° | 68° | 44% | 1011 mb | 2,390 ft | |||
| 04-मई | 13:30 | n/a | 80° | 9 kt | Missing | 33° | 91° | 20° | 68° | 46% | 1011 mb | 2,270 ft | |||
| 04-मई | 12:30 | n/a | 120° | 7 kt | Missing | 33° | 91° | 20° | 68° | 46% | 1012 mb | 2,241 ft | |||
| 04-मई | 11:30 | n/a | 90° | 6 kt | Missing | 32° | 89° | 21° | 69° | 52% | 1013 mb | 2,091 ft | |||
| 04-मई | 10:30 | n/a | 150° | 3 kt | Missing | 29° | 84° | 24° | 75° | 74% | 1014 mb | 1,702 ft | |||
| 04-मई | 09:30 | n/a | 180° | 3 kt | Missing | 27° | 80° | 24° | 75° | 84% | 1013 mb | 1,491 ft | |||
| 04-मई | 08:30 | n/a | 160° | 2 kt | Missing | 25° | 77° | 24° | 75° | 94% | 1013 mb | 1,251 ft | |||
| 04-मई | 07:30 | n/a | 170° | 2 kt | Missing | 24° | 75° | 24° | 75° | 100% | 1012 mb | 1,161 ft | |||
| 04-मई | 06:30 | n/a | 190° | 2 kt | Missing | 24° | 75° | 24° | 75° | 100% | 1012 mb | 1,161 ft | |||
| 04-मई | 05:30 | n/a | Calm | Missing | 25° | 77° | 24° | 75° | 94% | 1011 mb | 1,310 ft | ||||
| 04-मई | 04:30 | n/a | Calm | Missing | 24° | 75° | 24° | 75° | 100% | 1011 mb | 1,190 ft | ||||
| 04-मई | 03:30 | n/a | Calm | Missing | 24° | 75° | 24° | 75° | 100% | 1011 mb | 1,190 ft | ||||
| 04-मई | 02:30 | n/a | Calm | Missing | 23° | 73° | 23° | 73° | 100% | 1011 mb | 1,070 ft | ||||
| 04-मई | 01:30 | n/a | Calm | Missing | 23° | 73° | 22° | 71° | 94% | 1011 mb | 1,070 ft | ||||
| 04-मई | 00:30 | n/a | Calm | Missing | 23° | 73° | 22° | 71° | 94% | 1012 mb | 1,041 ft | ||||
| 03-मई | 23:30 | n/a | Calm | Missing | 24° | 75° | 23° | 73° | 94% | 1013 mb | 1,131 ft | ||||
| 03-मई | 22:30 | n/a | Calm | Missing | 24° | 75° | 23° | 73° | 94% | 1013 mb | 1,131 ft | ||||
| 03-मई | 21:30 | n/a | Calm | Missing | 25° | 77° | 24° | 75° | 94% | 1013 mb | 1,251 ft | ||||
| 03-मई | 20:30 | n/a | 70° | 2 kt | Missing | 26° | 78° | 24° | 75° | 89% | 1013 mb | 1,371 ft | |||
| 03-मई | 19:30 | n/a | 90° | 6 kt | Missing | 27° | 80° | 24° | 75° | 84% | 1012 mb | 1,521 ft | |||
| 03-मई | 18:30 | n/a | 90° | 6 kt | Missing | 28° | 82° | 24° | 75° | 79% | 1011 mb | 1,670 ft | |||
| 03-मई | 17:30 | n/a | 100° | 8 kt | Missing | 31° | 87° | 22° | 71° | 59% | 1011 mb | 2,030 ft | |||
| 03-मई | 16:30 | n/a | 100° | 8 kt | Missing | 33° | 91° | 23° | 73° | 56% | 1011 mb | 2,270 ft |
लॉगिन
| Your browser is unsupported. अपना ब्राऊजर अपग्रेड करें |
